sensor_id;sensor_type;location;lat;lon;timestamp;P1;durP1;ratioP1;P2;durP2;ratioP2
71767;SDS011;59604;52.138;5.446;2023-01-16T00:01:54;5.95;;;1.90;;
71767;SDS011;59604;52.138;5.446;2023-01-16T00:04:22;6.10;;;2.03;;
71767;SDS011;59604;52.138;5.446;2023-01-16T00:06:49;5.32;;;2.03;;
71767;SDS011;59604;52.138;5.446;2023-01-16T00:09:16;5.85;;;1.75;;
71767;SDS011;59604;52.138;5.446;2023-01-16T00:11:44;5.13;;;1.75;;
71767;SDS011;59604;52.138;5.446;2023-01-16T00:14:11;6.47;;;2.15;;
71767;SDS011;59604;52.138;5.446;2023-01-16T00:16:38;5.60;;;2.00;;
71767;SDS011;59604;52.138;5.446;2023-01-16T00:19:04;6.45;;;2.28;;
71767;SDS011;59604;52.138;5.446;2023-01-16T00:21:31;6.75;;;2.00;;
71767;SDS011;59604;52.138;5.446;2023-01-16T00:23:58;7.32;;;1.80;;
71767;SDS011;59604;52.138;5.446;2023-01-16T00:26:26;5.22;;;2.05;;
71767;SDS011;59604;52.138;5.446;2023-01-16T00:28:53;6.78;;;2.67;;
71767;SDS011;59604;52.138;5.446;2023-01-16T00:31:20;6.55;;;2.20;;
71767;SDS011;59604;52.138;5.446;2023-01-16T00:33:49;6.95;;;2.42;;
71767;SDS011;59604;52.138;5.446;2023-01-16T00:36:16;5.45;;;2.25;;
71767;SDS011;59604;52.138;5.446;2023-01-16T00:38:43;9.63;;;2.40;;
71767;SDS011;59604;52.138;5.446;2023-01-16T00:41:09;7.68;;;2.33;;
71767;SDS011;59604;52.138;5.446;2023-01-16T00:43:36;8.30;;;2.55;;
71767;SDS011;59604;52.138;5.446;2023-01-16T00:46:03;6.10;;;2.63;;
71767;SDS011;59604;52.138;5.446;2023-01-16T00:48:29;8.93;;;2.88;;
71767;SDS011;59604;52.138;5.446;2023-01-16T00:50:56;7.07;;;2.58;;
71767;SDS011;59604;52.138;5.446;2023-01-16T00:53:23;7.60;;;2.78;;
71767;SDS011;59604;52.138;5.446;2023-01-16T00:55:52;7.78;;;2.65;;
71767;SDS011;59604;52.138;5.446;2023-01-16T00:58:19;8.60;;;2.78;;
71767;SDS011;59604;52.138;5.446;2023-01-16T01:00:46;7.72;;;2.83;;
71767;SDS011;59604;52.138;5.446;2023-01-16T01:03:13;8.68;;;3.20;;
71767;SDS011;59604;52.138;5.446;2023-01-16T01:05:39;8.32;;;3.10;;
71767;SDS011;59604;52.138;5.446;2023-01-16T01:08:06;7.72;;;3.30;;
71767;SDS011;59604;52.138;5.446;2023-01-16T01:10:35;8.90;;;3.30;;
71767;SDS011;59604;52.138;5.446;2023-01-16T01:13:02;11.27;;;3.63;;
71767;SDS011;59604;52.138;5.446;2023-01-16T01:15:29;11.25;;;4.20;;
71767;SDS011;59604;52.138;5.446;2023-01-16T01:17:56;10.75;;;4.63;;
71767;SDS011;59604;52.138;5.446;2023-01-16T01:20:22;13.00;;;3.90;;
71767;SDS011;59604;52.138;5.446;2023-01-16T01:22:49;10.38;;;4.60;;
71767;SDS011;59604;52.138;5.446;2023-01-16T01:25:15;12.77;;;4.78;;
71767;SDS011;59604;52.138;5.446;2023-01-16T01:27:42;11.32;;;4.57;;
71767;SDS011;59604;52.138;5.446;2023-01-16T01:30:09;12.82;;;4.90;;
71767;SDS011;59604;52.138;5.446;2023-01-16T01:32:36;10.32;;;4.75;;
71767;SDS011;59604;52.138;5.446;2023-01-16T01:35:06;12.45;;;4.90;;
71767;SDS011;59604;52.138;5.446;2023-01-16T01:37:33;13.35;;;5.18;;
71767;SDS011;59604;52.138;5.446;2023-01-16T01:40:02;14.68;;;5.22;;
71767;SDS011;59604;52.138;5.446;2023-01-16T01:42:36;17.35;;;6.13;;
71767;SDS011;59604;52.138;5.446;2023-01-16T01:45:17;15.50;;;6.32;;
71767;SDS011;59604;52.138;5.446;2023-01-16T01:47:51;13.05;;;5.53;;
71767;SDS011;59604;52.138;5.446;2023-01-16T01:50:42;18.98;;;5.90;;
71767;SDS011;59604;52.138;5.446;2023-01-16T01:53:31;14.82;;;6.00;;
71767;SDS011;59604;52.138;5.446;2023-01-16T01:56:01;16.20;;;6.32;;
71767;SDS011;59604;52.138;5.446;2023-01-16T01:58:35;12.88;;;5.68;;
71767;SDS011;59604;52.138;5.446;2023-01-16T02:01:02;14.85;;;5.85;;
71767;SDS011;59604;52.138;5.446;2023-01-16T02:03:32;12.85;;;5.93;;
71767;SDS011;59604;52.138;5.446;2023-01-16T02:06:05;15.35;;;5.82;;
71767;SDS011;59604;52.138;5.446;2023-01-16T02:08:38;15.95;;;6.28;;
71767;SDS011;59604;52.138;5.446;2023-01-16T02:11:14;12.80;;;5.60;;
71767;SDS011;59604;52.138;5.446;2023-01-16T02:13:55;13.15;;;5.43;;
71767;SDS011;59604;52.138;5.446;2023-01-16T02:16:24;13.82;;;5.28;;
71767;SDS011;59604;52.138;5.446;2023-01-16T02:19:13;12.65;;;4.88;;
71767;SDS011;59604;52.138;5.446;2023-01-16T02:38:06;11.30;;;4.90;;
71767;SDS011;59604;52.138;5.446;2023-01-16T02:46:35;11.15;;;3.33;;
71767;SDS011;59604;52.138;5.446;2023-01-16T02:49:26;9.98;;;3.45;;
71767;SDS011;59604;52.138;5.446;2023-01-16T02:52:10;10.10;;;3.20;;
71767;SDS011;59604;52.138;5.446;2023-01-16T02:54:54;9.07;;;2.80;;
71767;SDS011;59604;52.138;5.446;2023-01-16T02:57:31;8.45;;;2.72;;
71767;SDS011;59604;52.138;5.446;2023-01-16T03:00:05;8.57;;;2.72;;
71767;SDS011;59604;52.138;5.446;2023-01-16T03:02:33;6.93;;;2.95;;
71767;SDS011;59604;52.138;5.446;2023-01-16T03:05:00;7.43;;;2.50;;
71767;SDS011;59604;52.138;5.446;2023-01-16T03:07:49;8.68;;;2.53;;
71767;SDS011;59604;52.138;5.446;2023-01-16T03:10:41;8.43;;;2.63;;
71767;SDS011;59604;52.138;5.446;2023-01-16T03:27:49;7.90;;;1.92;;
71767;SDS011;59604;52.138;5.446;2023-01-16T03:32:54;6.75;;;1.60;;
71767;SDS011;59604;52.138;5.446;2023-01-16T03:35:34;7.90;;;2.00;;
71767;SDS011;59604;52.138;5.446;2023-01-16T03:38:07;4.90;;;1.70;;
71767;SDS011;59604;52.138;5.446;2023-01-16T03:40:39;6.75;;;1.90;;
71767;SDS011;59604;52.138;5.446;2023-01-16T03:45:49;4.80;;;1.40;;
71767;SDS011;59604;52.138;5.446;2023-01-16T03:51:07;4.65;;;1.83;;
71767;SDS011;59604;52.138;5.446;2023-01-16T03:53:45;4.80;;;1.42;;
71767;SDS011;59604;52.138;5.446;2023-01-16T03:56:20;4.63;;;1.40;;
71767;SDS011;59604;52.138;5.446;2023-01-16T03:58:54;5.78;;;1.35;;
71767;SDS011;59604;52.138;5.446;2023-01-16T04:01:43;6.03;;;1.40;;
71767;SDS011;59604;52.138;5.446;2023-01-16T04:04:23;4.97;;;1.42;;
71767;SDS011;59604;52.138;5.446;2023-01-16T04:07:12;4.30;;;1.40;;
71767;SDS011;59604;52.138;5.446;2023-01-16T04:10:13;6.93;;;1.30;;
71767;SDS011;59604;52.138;5.446;2023-01-16T04:12:49;6.15;;;1.45;;
71767;SDS011;59604;52.138;5.446;2023-01-16T04:15:19;6.80;;;1.50;;
71767;SDS011;59604;52.138;5.446;2023-01-16T04:17:47;6.15;;;1.25;;
71767;SDS011;59604;52.138;5.446;2023-01-16T04:20:15;6.97;;;1.20;;
71767;SDS011;59604;52.138;5.446;2023-01-16T04:22:41;6.45;;;1.63;;
71767;SDS011;59604;52.138;5.446;2023-01-16T04:25:13;6.78;;;1.45;;
71767;SDS011;59604;52.138;5.446;2023-01-16T04:27:41;5.30;;;1.30;;
71767;SDS011;59604;52.138;5.446;2023-01-16T04:32:36;4.90;;;1.23;;
71767;SDS011;59604;52.138;5.446;2023-01-16T04:35:04;5.60;;;1.33;;
71767;SDS011;59604;52.138;5.446;2023-01-16T04:37:31;5.18;;;1.20;;
71767;SDS011;59604;52.138;5.446;2023-01-16T04:39:59;5.55;;;1.38;;
71767;SDS011;59604;52.138;5.446;2023-01-16T04:42:26;6.10;;;1.55;;
71767;SDS011;59604;52.138;5.446;2023-01-16T04:44:53;4.80;;;1.25;;
71767;SDS011;59604;52.138;5.446;2023-01-16T04:47:19;4.85;;;1.33;;
71767;SDS011;59604;52.138;5.446;2023-01-16T04:49:46;5.15;;;1.30;;
71767;SDS011;59604;52.138;5.446;2023-01-16T04:52:12;4.60;;;1.40;;
71767;SDS011;59604;52.138;5.446;2023-01-16T04:54:39;5.47;;;1.38;;
71767;SDS011;59604;52.138;5.446;2023-01-16T04:57:06;5.07;;;1.15;;
71767;SDS011;59604;52.138;5.446;2023-01-16T04:59:33;6.60;;;1.30;;
71767;SDS011;59604;52.138;5.446;2023-01-16T05:01:59;8.50;;;1.60;;
71767;SDS011;59604;52.138;5.446;2023-01-16T05:04:26;4.72;;;1.30;;
71767;SDS011;59604;52.138;5.446;2023-01-16T05:06:53;6.88;;;1.42;;
71767;SDS011;59604;52.138;5.446;2023-01-16T05:09:19;4.15;;;1.40;;
71767;SDS011;59604;52.138;5.446;2023-01-16T05:11:46;6.05;;;1.50;;
71767;SDS011;59604;52.138;5.446;2023-01-16T05:14:12;6.35;;;1.45;;
71767;SDS011;59604;52.138;5.446;2023-01-16T05:16:39;4.63;;;1.40;;
71767;SDS011;59604;52.138;5.446;2023-01-16T05:19:09;5.70;;;1.40;;
71767;SDS011;59604;52.138;5.446;2023-01-16T05:21:36;6.95;;;1.52;;
71767;SDS011;59604;52.138;5.446;2023-01-16T05:24:03;4.53;;;1.20;;
71767;SDS011;59604;52.138;5.446;2023-01-16T05:26:30;4.38;;;1.23;;
71767;SDS011;59604;52.138;5.446;2023-01-16T05:28:58;4.82;;;1.48;;
71767;SDS011;59604;52.138;5.446;2023-01-16T05:31:25;4.78;;;1.42;;
71767;SDS011;59604;52.138;5.446;2023-01-16T05:33:52;5.70;;;1.70;;
71767;SDS011;59604;52.138;5.446;2023-01-16T05:36:19;7.25;;;1.50;;
71767;SDS011;59604;52.138;5.446;2023-01-16T05:38:46;4.72;;;1.33;;
71767;SDS011;59604;52.138;5.446;2023-01-16T05:41:12;8.50;;;1.63;;
71767;SDS011;59604;52.138;5.446;2023-01-16T05:43:39;6.15;;;1.40;;
71767;SDS011;59604;52.138;5.446;2023-01-16T05:46:07;4.90;;;1.33;;
71767;SDS011;59604;52.138;5.446;2023-01-16T05:48:34;5.40;;;1.38;;
71767;SDS011;59604;52.138;5.446;2023-01-16T05:51:02;4.28;;;1.15;;
71767;SDS011;59604;52.138;5.446;2023-01-16T05:53:30;11.90;;;1.40;;
71767;SDS011;59604;52.138;5.446;2023-01-16T05:55:57;5.30;;;1.38;;
71767;SDS011;59604;52.138;5.446;2023-01-16T05:58:25;8.02;;;1.48;;
71767;SDS011;59604;52.138;5.446;2023-01-16T06:00:51;6.50;;;1.70;;
71767;SDS011;59604;52.138;5.446;2023-01-16T06:03:18;6.85;;;1.52;;
71767;SDS011;59604;52.138;5.446;2023-01-16T06:05:44;6.75;;;1.50;;
71767;SDS011;59604;52.138;5.446;2023-01-16T06:08:11;5.97;;;1.45;;
71767;SDS011;59604;52.138;5.446;2023-01-16T06:10:38;7.65;;;1.90;;
71767;SDS011;59604;52.138;5.446;2023-01-16T06:13:04;7.00;;;2.00;;
71767;SDS011;59604;52.138;5.446;2023-01-16T06:15:31;9.15;;;1.83;;
71767;SDS011;59604;52.138;5.446;2023-01-16T06:17:57;7.07;;;1.80;;
71767;SDS011;59604;52.138;5.446;2023-01-16T06:20:24;5.80;;;1.58;;
71767;SDS011;59604;52.138;5.446;2023-01-16T06:22:51;7.10;;;1.65;;
71767;SDS011;59604;52.138;5.446;2023-01-16T06:25:17;4.35;;;1.30;;
71767;SDS011;59604;52.138;5.446;2023-01-16T06:27:48;5.63;;;1.50;;
71767;SDS011;59604;52.138;5.446;2023-01-16T06:30:16;9.98;;;1.63;;
71767;SDS011;59604;52.138;5.446;2023-01-16T06:32:43;6.97;;;1.42;;
71767;SDS011;59604;52.138;5.446;2023-01-16T06:35:14;6.13;;;1.63;;
71767;SDS011;59604;52.138;5.446;2023-01-16T06:37:41;6.82;;;1.40;;
71767;SDS011;59604;52.138;5.446;2023-01-16T06:40:07;5.55;;;1.30;;
71767;SDS011;59604;52.138;5.446;2023-01-16T06:42:37;6.78;;;1.55;;
71767;SDS011;59604;52.138;5.446;2023-01-16T06:45:04;6.97;;;1.67;;
71767;SDS011;59604;52.138;5.446;2023-01-16T06:47:31;5.40;;;1.35;;
71767;SDS011;59604;52.138;5.446;2023-01-16T06:49:58;4.53;;;1.38;;
71767;SDS011;59604;52.138;5.446;2023-01-16T06:52:25;9.10;;;1.73;;
71767;SDS011;59604;52.138;5.446;2023-01-16T06:54:51;6.70;;;1.45;;
71767;SDS011;59604;52.138;5.446;2023-01-16T06:57:18;5.65;;;1.20;;
71767;SDS011;59604;52.138;5.446;2023-01-16T06:59:45;7.18;;;1.20;;
71767;SDS011;59604;52.138;5.446;2023-01-16T07:02:12;6.57;;;1.15;;
71767;SDS011;59604;52.138;5.446;2023-01-16T07:04:39;6.22;;;1.17;;
71767;SDS011;59604;52.138;5.446;2023-01-16T07:07:05;5.80;;;1.35;;
71767;SDS011;59604;52.138;5.446;2023-01-16T07:09:32;4.50;;;1.20;;
71767;SDS011;59604;52.138;5.446;2023-01-16T07:11:59;6.50;;;1.48;;
71767;SDS011;59604;52.138;5.446;2023-01-16T07:14:26;5.45;;;1.20;;
71767;SDS011;59604;52.138;5.446;2023-01-16T07:17:11;5.75;;;1.00;;
71767;SDS011;59604;52.138;5.446;2023-01-16T07:19:57;6.63;;;1.27;;
71767;SDS011;59604;52.138;5.446;2023-01-16T07:22:42;7.35;;;1.40;;
71767;SDS011;59604;52.138;5.446;2023-01-16T07:27:45;5.45;;;1.30;;
71767;SDS011;59604;52.138;5.446;2023-01-16T07:30:15;4.15;;;1.10;;
71767;SDS011;59604;52.138;5.446;2023-01-16T07:37:36;3.50;;;0.95;;
71767;SDS011;59604;52.138;5.446;2023-01-16T07:40:05;5.22;;;1.35;;
71767;SDS011;59604;52.138;5.446;2023-01-16T07:42:32;7.70;;;1.73;;
71767;SDS011;59604;52.138;5.446;2023-01-16T07:45:01;6.60;;;1.48;;
71767;SDS011;59604;52.138;5.446;2023-01-16T07:47:27;7.32;;;1.48;;
71767;SDS011;59604;52.138;5.446;2023-01-16T07:49:54;5.88;;;1.58;;
71767;SDS011;59604;52.138;5.446;2023-01-16T07:52:22;5.65;;;1.50;;
71767;SDS011;59604;52.138;5.446;2023-01-16T07:54:49;6.75;;;1.70;;
71767;SDS011;59604;52.138;5.446;2023-01-16T07:57:15;7.07;;;1.48;;
71767;SDS011;59604;52.138;5.446;2023-01-16T07:59:43;5.60;;;1.52;;
71767;SDS011;59604;52.138;5.446;2023-01-16T08:02:10;4.22;;;1.63;;
71767;SDS011;59604;52.138;5.446;2023-01-16T08:04:36;6.25;;;1.95;;
71767;SDS011;59604;52.138;5.446;2023-01-16T08:07:03;3.80;;;1.48;;
71767;SDS011;59604;52.138;5.446;2023-01-16T08:09:30;5.30;;;1.95;;
71767;SDS011;59604;52.138;5.446;2023-01-16T08:11:56;5.00;;;1.73;;
71767;SDS011;59604;52.138;5.446;2023-01-16T08:14:23;6.47;;;1.58;;
71767;SDS011;59604;52.138;5.446;2023-01-16T08:16:50;5.93;;;2.00;;
71767;SDS011;59604;52.138;5.446;2023-01-16T08:19:17;7.35;;;2.25;;
71767;SDS011;59604;52.138;5.446;2023-01-16T08:21:44;6.57;;;2.03;;
71767;SDS011;59604;52.138;5.446;2023-01-16T08:24:11;6.07;;;2.25;;
71767;SDS011;59604;52.138;5.446;2023-01-16T08:26:40;6.03;;;2.00;;
71767;SDS011;59604;52.138;5.446;2023-01-16T08:29:07;6.35;;;2.08;;
71767;SDS011;59604;52.138;5.446;2023-01-16T08:31:35;7.95;;;2.70;;
71767;SDS011;59604;52.138;5.446;2023-01-16T08:34:02;6.47;;;2.30;;
71767;SDS011;59604;52.138;5.446;2023-01-16T08:36:28;6.28;;;2.35;;
71767;SDS011;59604;52.138;5.446;2023-01-16T08:38:55;8.25;;;2.45;;
71767;SDS011;59604;52.138;5.446;2023-01-16T08:41:21;6.60;;;2.20;;
71767;SDS011;59604;52.138;5.446;2023-01-16T08:44:07;8.55;;;2.00;;
71767;SDS011;59604;52.138;5.446;2023-01-16T08:47:00;8.55;;;1.88;;
71767;SDS011;59604;52.138;5.446;2023-01-16T08:49:48;5.65;;;2.15;;
71767;SDS011;59604;52.138;5.446;2023-01-16T08:52:34;6.18;;;1.55;;
71767;SDS011;59604;52.138;5.446;2023-01-16T08:55:03;6.00;;;1.92;;
71767;SDS011;59604;52.138;5.446;2023-01-16T08:57:30;6.68;;;2.22;;
71767;SDS011;59604;52.138;5.446;2023-01-16T08:59:57;5.57;;;1.80;;
71767;SDS011;59604;52.138;5.446;2023-01-16T09:02:25;5.03;;;1.70;;
71767;SDS011;59604;52.138;5.446;2023-01-16T09:04:53;6.53;;;1.80;;
71767;SDS011;59604;52.138;5.446;2023-01-16T09:07:21;6.30;;;1.67;;
71767;SDS011;59604;52.138;5.446;2023-01-16T09:09:48;5.95;;;1.70;;
71767;SDS011;59604;52.138;5.446;2023-01-16T09:12:15;6.07;;;1.67;;
71767;SDS011;59604;52.138;5.446;2023-01-16T09:15:01;5.75;;;1.80;;
71767;SDS011;59604;52.138;5.446;2023-01-16T09:17:29;4.72;;;2.15;;
71767;SDS011;59604;52.138;5.446;2023-01-16T09:19:55;7.65;;;1.75;;
71767;SDS011;59604;52.138;5.446;2023-01-16T09:22:22;6.85;;;2.00;;
71767;SDS011;59604;52.138;5.446;2023-01-16T09:24:49;6.97;;;1.85;;
71767;SDS011;59604;52.138;5.446;2023-01-16T09:27:16;4.80;;;1.52;;
71767;SDS011;59604;52.138;5.446;2023-01-16T09:29:44;5.38;;;1.98;;
71767;SDS011;59604;52.138;5.446;2023-01-16T09:32:12;4.97;;;1.60;;
71767;SDS011;59604;52.138;5.446;2023-01-16T09:34:39;6.05;;;2.00;;
71767;SDS011;59604;52.138;5.446;2023-01-16T09:37:07;5.95;;;1.90;;
71767;SDS011;59604;52.138;5.446;2023-01-16T09:39:34;6.03;;;2.10;;
71767;SDS011;59604;52.138;5.446;2023-01-16T09:45:00;9.35;;;2.08;;
71767;SDS011;59604;52.138;5.446;2023-01-16T09:47:30;6.05;;;2.05;;
71767;SDS011;59604;52.138;5.446;2023-01-16T09:50:02;6.38;;;2.50;;
71767;SDS011;59604;52.138;5.446;2023-01-16T09:52:37;5.93;;;2.20;;
71767;SDS011;59604;52.138;5.446;2023-01-16T09:55:33;6.97;;;2.30;;
71767;SDS011;59604;52.138;5.446;2023-01-16T09:58:22;6.93;;;2.40;;
71767;SDS011;59604;52.138;5.446;2023-01-16T10:01:02;7.80;;;2.38;;
71767;SDS011;59604;52.138;5.446;2023-01-16T10:03:48;5.88;;;2.30;;
71767;SDS011;59604;52.138;5.446;2023-01-16T10:09:44;5.53;;;2.00;;
71767;SDS011;59604;52.138;5.446;2023-01-16T10:12:36;6.68;;;2.15;;
71767;SDS011;59604;52.138;5.446;2023-01-16T10:18:36;5.68;;;1.90;;
71767;SDS011;59604;52.138;5.446;2023-01-16T10:21:25;5.65;;;1.80;;
71767;SDS011;59604;52.138;5.446;2023-01-16T10:37:38;3.30;;;1.20;;
71767;SDS011;59604;52.138;5.446;2023-01-16T10:40:16;5.18;;;1.50;;
71767;SDS011;59604;52.138;5.446;2023-01-16T10:42:49;4.00;;;1.50;;
71767;SDS011;59604;52.138;5.446;2023-01-16T10:45:47;4.22;;;1.63;;
71767;SDS011;59604;52.138;5.446;2023-01-16T10:48:33;4.25;;;1.30;;
71767;SDS011;59604;52.138;5.446;2023-01-16T10:51:18;3.83;;;1.10;;
71767;SDS011;59604;52.138;5.446;2023-01-16T10:53:45;3.10;;;1.10;;
71767;SDS011;59604;52.138;5.446;2023-01-16T10:56:11;3.75;;;1.13;;
71767;SDS011;59604;52.138;5.446;2023-01-16T10:58:38;4.57;;;1.30;;
71767;SDS011;59604;52.138;5.446;2023-01-16T11:01:15;4.18;;;1.13;;
71767;SDS011;59604;52.138;5.446;2023-01-16T11:03:55;4.93;;;1.35;;
71767;SDS011;59604;52.138;5.446;2023-01-16T11:06:28;5.75;;;1.23;;
71767;SDS011;59604;52.138;5.446;2023-01-16T11:09:03;5.18;;;1.20;;
71767;SDS011;59604;52.138;5.446;2023-01-16T11:11:36;4.07;;;1.10;;
71767;SDS011;59604;52.138;5.446;2023-01-16T11:14:22;3.33;;;1.20;;
71767;SDS011;59604;52.138;5.446;2023-01-16T11:20:02;4.68;;;1.30;;
71767;SDS011;59604;52.138;5.446;2023-01-16T11:22:31;2.95;;;0.98;;
71767;SDS011;59604;52.138;5.446;2023-01-16T11:25:04;4.53;;;1.30;;
71767;SDS011;59604;52.138;5.446;2023-01-16T11:27:32;4.05;;;1.20;;
71767;SDS011;59604;52.138;5.446;2023-01-16T11:30:06;3.80;;;1.25;;
71767;SDS011;59604;52.138;5.446;2023-01-16T11:32:40;4.85;;;1.25;;
71767;SDS011;59604;52.138;5.446;2023-01-16T11:35:15;4.03;;;1.30;;
71767;SDS011;59604;52.138;5.446;2023-01-16T11:37:44;4.25;;;1.13;;
71767;SDS011;59604;52.138;5.446;2023-01-16T11:40:16;4.47;;;1.17;;
71767;SDS011;59604;52.138;5.446;2023-01-16T11:42:53;4.32;;;1.33;;
71767;SDS011;59604;52.138;5.446;2023-01-16T11:45:43;3.90;;;1.42;;
71767;SDS011;59604;52.138;5.446;2023-01-16T11:48:42;3.65;;;1.40;;
71767;SDS011;59604;52.138;5.446;2023-01-16T11:51:19;5.57;;;1.35;;
71767;SDS011;59604;52.138;5.446;2023-01-16T11:59:26;5.90;;;1.60;;
71767;SDS011;59604;52.138;5.446;2023-01-16T12:11:04;3.58;;;1.17;;
71767;SDS011;59604;52.138;5.446;2023-01-16T12:13:55;5.43;;;1.70;;
71767;SDS011;59604;52.138;5.446;2023-01-16T12:22:32;4.78;;;1.58;;
71767;SDS011;59604;52.138;5.446;2023-01-16T12:28:20;3.78;;;1.30;;
71767;SDS011;59604;52.138;5.446;2023-01-16T12:39:49;3.22;;;1.10;;
71767;SDS011;59604;52.138;5.446;2023-01-16T12:42:22;3.72;;;1.27;;
71767;SDS011;59604;52.138;5.446;2023-01-16T12:45:27;3.15;;;1.10;;
71767;SDS011;59604;52.138;5.446;2023-01-16T12:51:26;3.15;;;1.10;;
71767;SDS011;59604;52.138;5.446;2023-01-16T12:56:58;3.60;;;1.10;;
71767;SDS011;59604;52.138;5.446;2023-01-16T12:59:34;4.00;;;1.20;;
71767;SDS011;59604;52.138;5.446;2023-01-16T13:05:15;4.38;;;1.17;;
71767;SDS011;59604;52.138;5.446;2023-01-16T13:07:47;4.30;;;1.20;;
71767;SDS011;59604;52.138;5.446;2023-01-16T13:10:20;4.30;;;1.27;;
71767;SDS011;59604;52.138;5.446;2023-01-16T13:13:19;3.38;;;1.17;;
71767;SDS011;59604;52.138;5.446;2023-01-16T13:15:54;4.55;;;1.20;;
71767;SDS011;59604;52.138;5.446;2023-01-16T13:18:42;3.78;;;1.25;;
71767;SDS011;59604;52.138;5.446;2023-01-16T13:21:15;3.42;;;1.20;;
71767;SDS011;59604;52.138;5.446;2023-01-16T13:23:50;3.00;;;1.00;;
71767;SDS011;59604;52.138;5.446;2023-01-16T13:26:29;3.88;;;1.15;;
71767;SDS011;59604;52.138;5.446;2023-01-16T13:31:45;3.55;;;1.10;;
71767;SDS011;59604;52.138;5.446;2023-01-16T13:42:10;4.32;;;1.27;;
71767;SDS011;59604;52.138;5.446;2023-01-16T13:44:42;7.10;;;1.13;;
71767;SDS011;59604;52.138;5.446;2023-01-16T13:47:33;5.93;;;1.20;;
71767;SDS011;59604;52.138;5.446;2023-01-16T13:52:50;5.07;;;1.25;;
71767;SDS011;59604;52.138;5.446;2023-01-16T13:55:31;3.85;;;1.08;;
71767;SDS011;59604;52.138;5.446;2023-01-16T13:58:07;3.80;;;1.13;;
71767;SDS011;59604;52.138;5.446;2023-01-16T14:00:43;3.45;;;1.23;;
71767;SDS011;59604;52.138;5.446;2023-01-16T14:03:18;4.82;;;1.20;;
71767;SDS011;59604;52.138;5.446;2023-01-16T14:05:48;4.70;;;1.33;;
71767;SDS011;59604;52.138;5.446;2023-01-16T14:08:25;3.90;;;1.10;;
71767;SDS011;59604;52.138;5.446;2023-01-16T14:11:38;3.05;;;1.10;;
71767;SDS011;59604;52.138;5.446;2023-01-16T14:17:14;3.47;;;1.00;;
71767;SDS011;59604;52.138;5.446;2023-01-16T14:20:01;4.55;;;1.10;;
71767;SDS011;59604;52.138;5.446;2023-01-16T14:25:40;4.57;;;1.10;;
71767;SDS011;59604;52.138;5.446;2023-01-16T14:28:14;3.25;;;1.02;;
71767;SDS011;59604;52.138;5.446;2023-01-16T14:33:11;3.42;;;1.08;;
71767;SDS011;59604;52.138;5.446;2023-01-16T14:35:44;3.45;;;1.00;;
71767;SDS011;59604;52.138;5.446;2023-01-16T14:38:19;3.30;;;1.00;;
71767;SDS011;59604;52.138;5.446;2023-01-16T14:40:52;4.28;;;1.10;;
71767;SDS011;59604;52.138;5.446;2023-01-16T14:47:08;5.35;;;1.60;;
71767;SDS011;59604;52.138;5.446;2023-01-16T14:50:10;3.28;;;1.17;;
71767;SDS011;59604;52.138;5.446;2023-01-16T15:01:33;3.70;;;1.25;;
71767;SDS011;59604;52.138;5.446;2023-01-16T15:05:21;3.00;;;1.10;;
71767;SDS011;59604;52.138;5.446;2023-01-16T15:07:47;5.65;;;1.17;;
71767;SDS011;59604;52.138;5.446;2023-01-16T15:10:29;3.10;;;1.10;;
71767;SDS011;59604;52.138;5.446;2023-01-16T15:15:42;3.28;;;1.13;;
71767;SDS011;59604;52.138;5.446;2023-01-16T15:18:12;4.05;;;1.23;;
71767;SDS011;59604;52.138;5.446;2023-01-16T15:20:59;3.38;;;1.02;;
71767;SDS011;59604;52.138;5.446;2023-01-16T15:23:45;4.47;;;1.50;;
71767;SDS011;59604;52.138;5.446;2023-01-16T15:26:20;3.90;;;1.23;;
71767;SDS011;59604;52.138;5.446;2023-01-16T15:29:17;3.33;;;1.13;;
71767;SDS011;59604;52.138;5.446;2023-01-16T15:31:58;3.67;;;1.30;;
71767;SDS011;59604;52.138;5.446;2023-01-16T15:34:30;5.22;;;1.38;;
71767;SDS011;59604;52.138;5.446;2023-01-16T15:36:58;3.80;;;1.27;;
71767;SDS011;59604;52.138;5.446;2023-01-16T15:45:01;7.68;;;3.15;;
71767;SDS011;59604;52.138;5.446;2023-01-16T15:51:10;3.42;;;1.20;;
71767;SDS011;59604;52.138;5.446;2023-01-16T15:53:42;4.00;;;1.20;;
71767;SDS011;59604;52.138;5.446;2023-01-16T15:56:22;3.38;;;1.08;;
71767;SDS011;59604;52.138;5.446;2023-01-16T15:58:51;3.63;;;1.33;;
71767;SDS011;59604;52.138;5.446;2023-01-16T16:01:28;4.28;;;1.40;;
71767;SDS011;59604;52.138;5.446;2023-01-16T16:03:57;4.97;;;1.20;;
71767;SDS011;59604;52.138;5.446;2023-01-16T16:06:25;4.00;;;1.48;;
71767;SDS011;59604;52.138;5.446;2023-01-16T16:08:55;4.63;;;1.48;;
71767;SDS011;59604;52.138;5.446;2023-01-16T16:11:29;4.07;;;1.40;;
71767;SDS011;59604;52.138;5.446;2023-01-16T16:23:21;4.78;;;1.90;;
71767;SDS011;59604;52.138;5.446;2023-01-16T16:28:27;5.00;;;2.00;;
71767;SDS011;59604;52.138;5.446;2023-01-16T16:31:00;6.57;;;2.40;;
71767;SDS011;59604;52.138;5.446;2023-01-16T16:33:30;5.63;;;2.60;;
71767;SDS011;59604;52.138;5.446;2023-01-16T16:36:02;7.80;;;3.83;;
71767;SDS011;59604;52.138;5.446;2023-01-16T16:38:30;8.23;;;3.65;;
71767;SDS011;59604;52.138;5.446;2023-01-16T16:43:42;6.82;;;3.25;;
71767;SDS011;59604;52.138;5.446;2023-01-16T16:48:57;11.15;;;3.47;;
71767;SDS011;59604;52.138;5.446;2023-01-16T16:51:43;8.80;;;3.67;;
71767;SDS011;59604;52.138;5.446;2023-01-16T16:56:47;9.18;;;3.70;;
71767;SDS011;59604;52.138;5.446;2023-01-16T16:59:24;7.75;;;3.63;;
71767;SDS011;59604;52.138;5.446;2023-01-16T17:01:54;7.80;;;3.80;;
71767;SDS011;59604;52.138;5.446;2023-01-16T17:04:27;8.70;;;3.92;;
71767;SDS011;59604;52.138;5.446;2023-01-16T17:06:53;9.27;;;4.15;;
71767;SDS011;59604;52.138;5.446;2023-01-16T17:09:20;8.60;;;4.07;;
71767;SDS011;59604;52.138;5.446;2023-01-16T17:11:48;6.93;;;3.47;;
71767;SDS011;59604;52.138;5.446;2023-01-16T17:14:15;9.55;;;3.95;;
71767;SDS011;59604;52.138;5.446;2023-01-16T17:16:42;8.95;;;4.15;;
71767;SDS011;59604;52.138;5.446;2023-01-16T17:21:46;8.68;;;4.03;;
71767;SDS011;59604;52.138;5.446;2023-01-16T17:24:16;13.13;;;6.47;;
71767;SDS011;59604;52.138;5.446;2023-01-16T17:26:45;17.92;;;7.95;;
71767;SDS011;59604;52.138;5.446;2023-01-16T17:29:12;10.23;;;5.07;;
71767;SDS011;59604;52.138;5.446;2023-01-16T17:31:42;10.98;;;4.68;;
71767;SDS011;59604;52.138;5.446;2023-01-16T17:34:13;11.90;;;6.15;;
71767;SDS011;59604;52.138;5.446;2023-01-16T17:36:42;8.02;;;3.47;;
71767;SDS011;59604;52.138;5.446;2023-01-16T17:39:09;6.05;;;2.67;;
71767;SDS011;59604;52.138;5.446;2023-01-16T17:41:36;6.28;;;2.65;;
71767;SDS011;59604;52.138;5.446;2023-01-16T17:44:09;6.60;;;3.05;;
71767;SDS011;59604;52.138;5.446;2023-01-16T17:46:59;8.10;;;3.30;;
71767;SDS011;59604;52.138;5.446;2023-01-16T17:49:26;5.93;;;2.47;;
71767;SDS011;59604;52.138;5.446;2023-01-16T17:51:52;7.30;;;3.45;;
71767;SDS011;59604;52.138;5.446;2023-01-16T17:54:19;6.22;;;2.92;;
71767;SDS011;59604;52.138;5.446;2023-01-16T17:57:04;7.63;;;3.53;;
71767;SDS011;59604;52.138;5.446;2023-01-16T17:59:31;13.10;;;6.18;;
71767;SDS011;59604;52.138;5.446;2023-01-16T18:01:57;8.32;;;4.25;;
71767;SDS011;59604;52.138;5.446;2023-01-16T18:04:24;7.20;;;3.50;;
71767;SDS011;59604;52.138;5.446;2023-01-16T18:06:51;7.90;;;3.28;;
71767;SDS011;59604;52.138;5.446;2023-01-16T18:09:17;8.73;;;3.97;;
71767;SDS011;59604;52.138;5.446;2023-01-16T18:11:44;7.90;;;3.58;;
71767;SDS011;59604;52.138;5.446;2023-01-16T18:14:29;8.18;;;3.50;;
71767;SDS011;59604;52.138;5.446;2023-01-16T18:17:15;10.65;;;4.60;;
71767;SDS011;59604;52.138;5.446;2023-01-16T18:19:56;8.65;;;3.22;;
71767;SDS011;59604;52.138;5.446;2023-01-16T18:22:27;6.75;;;3.00;;
71767;SDS011;59604;52.138;5.446;2023-01-16T18:24:55;6.85;;;2.70;;
71767;SDS011;59604;52.138;5.446;2023-01-16T18:27:22;6.40;;;2.85;;
71767;SDS011;59604;52.138;5.446;2023-01-16T18:29:49;6.30;;;2.70;;